createdAt,value
2019-05-03T00:01:57.786Z,21.30
2019-05-03T00:04:26.258Z,19.87
2019-05-03T00:06:54.465Z,19.60
2019-05-03T00:09:22.919Z,24.20
2019-05-03T00:11:52.836Z,23.87
2019-05-03T00:14:21.814Z,27.97
2019-05-03T00:16:52.256Z,25.23
2019-05-03T00:19:21.911Z,26.93
2019-05-03T00:21:52.487Z,27.87
2019-05-03T00:24:22.632Z,23.37
2019-05-03T00:26:51.647Z,22.87
2019-05-03T00:29:21.875Z,30.50
2019-05-03T00:31:51.717Z,23.80
2019-05-03T00:34:38.359Z,26.10
2019-05-03T00:37:13.638Z,26.67
2019-05-03T00:39:52.651Z,28.23
2019-05-03T00:42:22.507Z,22.73
2019-05-03T00:44:51.660Z,25.70
2019-05-03T00:47:22.026Z,24.83
2019-05-03T00:49:51.731Z,27.00
2019-05-03T00:52:19.852Z,24.73
2019-05-03T00:54:48.061Z,25.87
2019-05-03T00:57:16.570Z,24.63
2019-05-03T00:59:44.794Z,23.93
2019-05-03T01:02:13.223Z,25.73
2019-05-03T01:04:42.673Z,23.03
2019-05-03T01:07:11.753Z,25.70
2019-05-03T01:09:40.069Z,23.90
2019-05-03T01:12:08.295Z,26.63
2019-05-03T01:14:38.286Z,27.77
2019-05-03T01:17:06.507Z,24.57
2019-05-03T01:19:34.707Z,25.23
2019-05-03T01:22:02.895Z,26.03
2019-05-03T01:24:32.280Z,27.77
2019-05-03T01:27:01.967Z,27.43
2019-05-03T01:29:32.079Z,26.57
2019-05-03T01:32:02.285Z,24.00
2019-05-03T01:34:32.632Z,23.13
2019-05-03T01:37:02.575Z,30.60
2019-05-03T01:39:31.738Z,29.27
2019-05-03T01:42:02.688Z,29.93
2019-05-03T01:44:32.522Z,27.83
2019-05-03T01:47:02.400Z,26.43
2019-05-03T01:49:38.707Z,30.80
2019-05-03T01:52:12.675Z,31.13
2019-05-03T01:54:42.668Z,26.33
2019-05-03T01:57:11.601Z,29.53
2019-05-03T01:59:40.116Z,27.40
2019-05-03T02:02:09.955Z,31.00
2019-05-03T02:04:48.990Z,26.70
2019-05-03T02:07:17.202Z,32.07
2019-05-03T02:09:45.394Z,32.60
2019-05-03T02:12:13.602Z,36.40
2019-05-03T02:14:42.260Z,31.90
2019-05-03T02:17:12.430Z,33.50
2019-05-03T02:19:42.173Z,31.80
2019-05-03T02:22:12.039Z,32.73
2019-05-03T02:24:42.200Z,32.50
2019-05-03T02:27:12.579Z,35.13
2019-05-03T02:29:41.848Z,34.60
2019-05-03T02:32:10.191Z,35.17
2019-05-03T02:34:43.558Z,36.80
2019-05-03T02:37:10.063Z,34.13
2019-05-03T02:39:38.543Z,31.17
2019-05-03T02:42:11.394Z,30.97
2019-05-03T02:44:37.639Z,35.67
2019-05-03T02:47:10.516Z,35.00
2019-05-03T02:49:45.437Z,31.53
2019-05-03T02:52:15.176Z,31.17
2019-05-03T02:54:46.243Z,31.93
2019-05-03T02:57:15.060Z,29.30
2019-05-03T02:59:45.299Z,30.93
2019-05-03T03:02:15.176Z,31.67
2019-05-03T03:04:45.399Z,30.53
2019-05-03T03:07:15.162Z,27.30
2019-05-03T03:09:45.248Z,31.57
2019-05-03T03:12:15.262Z,21.00
2019-05-03T03:14:45.573Z,29.73
2019-05-03T03:17:15.786Z,23.60
2019-05-03T03:19:46.262Z,24.80
2019-05-03T03:22:16.816Z,25.27
2019-05-03T03:24:48.097Z,19.10
2019-05-03T03:27:19.380Z,21.17
2019-05-03T03:29:50.665Z,25.60
2019-05-03T03:32:29.522Z,25.13
2019-05-03T03:35:12.387Z,27.77
2019-05-03T03:37:40.383Z,30.27
2019-05-03T03:40:09.039Z,31.90
2019-05-03T03:42:39.054Z,26.67
2019-05-03T03:45:08.458Z,24.73
2019-05-03T03:47:38.357Z,21.90
2019-05-03T03:50:07.106Z,21.43
2019-05-03T03:52:36.825Z,26.03
2019-05-03T03:55:06.579Z,14.77
2019-05-03T03:57:36.013Z,25.00
2019-05-03T04:00:07.060Z,17.80
2019-05-03T04:02:35.621Z,19.87
2019-05-03T04:05:05.546Z,15.67
2019-05-03T04:07:36.175Z,14.73
2019-05-03T04:10:07.339Z,14.50
2019-05-03T04:12:35.529Z,13.43
2019-05-03T04:15:09.723Z,17.13
2019-05-03T04:17:56.833Z,17.13
2019-05-03T04:20:27.310Z,13.83
2019-05-03T04:22:56.089Z,12.70
2019-05-03T04:25:26.319Z,12.13
2019-05-03T04:27:56.044Z,16.93
2019-05-03T04:30:25.679Z,19.73
2019-05-03T04:32:56.470Z,14.40
2019-05-03T04:35:26.567Z,19.90
2019-05-03T04:37:55.880Z,19.13
2019-05-03T04:40:26.037Z,21.93
2019-05-03T04:42:55.524Z,20.27
2019-05-03T04:45:25.641Z,18.23
2019-05-03T04:47:56.163Z,15.03
2019-05-03T04:50:25.459Z,19.10
2019-05-03T04:52:56.587Z,15.00
2019-05-03T04:55:26.576Z,15.40
2019-05-03T04:57:56.120Z,15.43
2019-05-03T05:00:25.586Z,16.13
2019-05-03T05:02:55.164Z,18.80
2019-05-03T05:05:26.118Z,14.53
2019-05-03T05:07:55.783Z,14.83
2019-05-03T05:10:25.901Z,21.70
2019-05-03T05:12:55.180Z,12.17
2019-05-03T05:15:26.030Z,12.47
2019-05-03T05:17:56.302Z,14.30
2019-05-03T05:20:38.948Z,15.37
2019-05-03T05:23:07.435Z,13.87
2019-05-03T05:25:37.266Z,12.07
2019-05-03T05:28:18.805Z,13.57
2019-05-03T05:30:47.313Z,11.10
2019-05-03T05:33:21.690Z,15.47
2019-05-03T05:35:51.669Z,11.60
2019-05-03T05:38:20.236Z,13.70
2019-05-03T05:40:48.706Z,15.33
2019-05-03T05:43:16.908Z,12.07
2019-05-03T05:45:45.085Z,15.97
2019-05-03T05:48:17.870Z,14.20
2019-05-03T05:50:46.075Z,14.20
2019-05-03T05:53:15.268Z,11.90
2019-05-03T05:55:50.990Z,19.00
2019-05-03T05:58:25.718Z,11.33
2019-05-03T06:00:55.188Z,16.73
2019-05-03T06:03:25.131Z,14.07
2019-05-03T06:05:55.084Z,13.33
2019-05-03T06:08:30.653Z,13.70
2019-05-03T06:11:01.734Z,13.70
2019-05-03T06:13:37.560Z,14.63
2019-05-03T06:16:16.409Z,13.83
2019-05-03T06:18:46.232Z,16.43
2019-05-03T06:21:16.406Z,10.90
2019-05-03T06:23:46.259Z,13.23
2019-05-03T06:26:34.529Z,12.07
2019-05-03T06:29:04.609Z,12.17
2019-05-03T06:31:44.596Z,15.60
2019-05-03T06:34:14.831Z,10.97
2019-05-03T06:36:44.965Z,12.63
2019-05-03T06:39:15.081Z,14.63
2019-05-03T06:41:44.547Z,15.07
2019-05-03T06:44:14.464Z,17.03
2019-05-03T06:46:45.597Z,16.50
2019-05-03T06:49:15.253Z,10.50
2019-05-03T06:51:45.657Z,9.17
2019-05-03T06:54:15.546Z,8.17
2019-05-03T06:56:45.257Z,11.53
2019-05-03T06:59:15.298Z,10.10
2019-05-03T07:01:47.777Z,9.03
2019-05-03T07:04:20.352Z,6.57
2019-05-03T07:06:55.935Z,6.87
2019-05-03T07:09:25.782Z,6.80
2019-05-03T07:11:55.563Z,6.37
2019-05-03T07:14:24.698Z,9.17
2019-05-03T07:16:53.002Z,8.00
2019-05-03T07:19:21.489Z,8.50
2019-05-03T07:21:49.686Z,7.10
2019-05-03T07:24:17.879Z,6.17
2019-05-03T07:26:46.050Z,4.63
2019-05-03T07:29:15.233Z,7.73
2019-05-03T07:31:44.686Z,7.40
2019-05-03T07:34:13.110Z,4.83
2019-05-03T07:36:41.565Z,4.70
2019-05-03T07:39:09.925Z,4.43
2019-05-03T07:41:38.430Z,8.73
2019-05-03T07:44:06.607Z,7.53
2019-05-03T07:46:34.961Z,4.87
2019-05-03T07:49:05.058Z,7.40
2019-05-03T07:51:34.832Z,7.33
2019-05-03T07:54:04.721Z,7.13
2019-05-03T07:56:35.610Z,7.63
2019-05-03T07:59:06.482Z,8.40
2019-05-03T08:01:36.537Z,4.80
2019-05-03T08:04:05.658Z,7.47
2019-05-03T08:06:34.608Z,8.00
2019-05-03T08:09:04.868Z,10.43
2019-05-03T08:11:35.058Z,12.40
2019-05-03T08:14:05.814Z,8.23
2019-05-03T08:16:35.331Z,4.90
2019-05-03T08:19:04.878Z,6.80
2019-05-03T08:21:37.478Z,7.17
2019-05-03T08:24:04.549Z,6.90
2019-05-03T08:26:34.863Z,5.10
2019-05-03T08:29:15.162Z,7.67
2019-05-03T08:31:45.450Z,8.57
2019-05-03T08:34:15.467Z,5.20
2019-05-03T08:36:54.841Z,6.40
2019-05-03T08:39:25.259Z,6.97
2019-05-03T08:42:04.786Z,8.00
2019-05-03T08:44:35.170Z,7.37
2019-05-03T08:47:05.073Z,8.43
2019-05-03T08:49:34.757Z,8.40
2019-05-03T08:52:05.238Z,7.43
2019-05-03T08:54:34.736Z,5.37
2019-05-03T08:57:02.870Z,9.33
2019-05-03T08:59:32.726Z,10.37
2019-05-03T09:02:05.199Z,6.67
2019-05-03T09:04:37.370Z,10.03
2019-05-03T09:07:01.708Z,5.43
2019-05-03T09:09:34.869Z,7.27
2019-05-03T09:12:04.687Z,7.03
2019-05-03T09:14:42.516Z,6.63
2019-05-03T09:17:04.934Z,6.00
2019-05-03T09:19:34.746Z,9.97
2019-05-03T09:22:05.954Z,5.53
2019-05-03T09:24:34.993Z,6.30
2019-05-03T09:27:05.062Z,7.50
2019-05-03T09:29:42.538Z,5.03
2019-05-03T09:32:05.166Z,6.47
2019-05-03T09:34:35.113Z,4.87
2019-05-03T09:37:04.820Z,7.10
2019-05-03T09:39:35.324Z,6.57
2019-05-03T09:42:04.703Z,6.43
2019-05-03T09:44:35.054Z,6.70
2019-05-03T09:47:05.691Z,6.47
2019-05-03T09:49:34.771Z,6.30
2019-05-03T09:52:08.065Z,8.73
2019-05-03T09:54:37.702Z,9.23
2019-05-03T09:57:06.254Z,6.87
2019-05-03T09:59:35.025Z,4.50
2019-05-03T10:02:04.882Z,6.93
2019-05-03T10:04:33.410Z,5.90
2019-05-03T10:07:01.585Z,5.23
2019-05-03T10:09:29.787Z,8.07
2019-05-03T10:11:58.331Z,5.30
2019-05-03T10:14:26.823Z,6.70
2019-05-03T10:16:59.350Z,6.97
2019-05-03T10:19:37.026Z,5.73
2019-05-03T10:21:57.454Z,5.33
2019-05-03T10:24:25.660Z,7.90
2019-05-03T10:26:55.215Z,7.50
2019-05-03T10:29:25.112Z,6.13
2019-05-03T10:31:57.733Z,6.60
2019-05-03T10:34:26.186Z,7.63
2019-05-03T10:36:54.909Z,6.27
2019-05-03T10:39:23.299Z,8.63
2019-05-03T10:41:51.478Z,9.57
2019-05-03T10:44:20.348Z,7.37
2019-05-03T10:46:48.522Z,4.93
2019-05-03T10:49:16.731Z,5.87
2019-05-03T10:51:46.823Z,10.90
2019-05-03T10:54:15.023Z,6.57
2019-05-03T10:56:56.702Z,11.73
2019-05-03T10:59:25.015Z,5.53
2019-05-03T11:01:54.830Z,10.33
2019-05-03T11:04:23.401Z,5.77
2019-05-03T11:06:51.829Z,4.23
2019-05-03T11:09:20.047Z,5.03
2019-05-03T11:11:48.343Z,6.47
2019-05-03T11:14:16.777Z,3.93
2019-05-03T11:16:46.057Z,4.60
2019-05-03T11:19:14.662Z,6.40
2019-05-03T11:21:45.262Z,8.10
2019-05-03T11:24:14.721Z,6.57
2019-05-03T11:26:45.430Z,7.83
2019-05-03T11:29:15.382Z,6.37
2019-05-03T11:31:45.357Z,7.67
2019-05-03T11:34:22.244Z,7.47
2019-05-03T11:36:52.483Z,4.57
2019-05-03T11:39:20.689Z,5.73
2019-05-03T11:41:50.828Z,6.57
2019-05-03T11:44:36.872Z,7.00
2019-05-03T11:47:05.809Z,6.27
2019-05-03T11:49:34.847Z,7.57
2019-05-03T11:52:03.177Z,7.20
2019-05-03T11:54:31.349Z,5.67
2019-05-03T11:57:01.712Z,9.27
2019-05-03T11:59:30.263Z,4.93
2019-05-03T12:02:00.101Z,5.97
2019-05-03T12:04:28.546Z,6.13
2019-05-03T12:06:56.745Z,4.90
2019-05-03T12:09:24.938Z,4.97
2019-05-03T12:11:55.353Z,6.37
2019-05-03T12:14:24.508Z,8.10
2019-05-03T12:17:16.153Z,5.67
2019-05-03T12:19:30.076Z,4.93
2019-05-03T12:21:54.858Z,6.03
2019-05-03T12:24:26.178Z,4.37
2019-05-03T12:26:55.675Z,7.13
2019-05-03T12:29:24.588Z,8.27
2019-05-03T12:31:54.788Z,4.50
2019-05-03T12:34:22.879Z,5.43
2019-05-03T12:36:51.576Z,5.63
2019-05-03T12:39:26.260Z,7.23
2019-05-03T12:41:49.857Z,5.10
2019-05-03T12:44:18.043Z,9.13
2019-05-03T12:46:46.245Z,10.83
2019-05-03T12:49:15.493Z,7.77
2019-05-03T12:51:45.306Z,7.07
2019-05-03T12:54:15.210Z,6.63
2019-05-03T12:56:45.325Z,6.27
2019-05-03T12:59:17.847Z,6.00
2019-05-03T13:01:47.686Z,6.10
2019-05-03T13:04:20.333Z,5.20
2019-05-03T13:06:50.170Z,9.40
2019-05-03T13:09:18.351Z,6.07
2019-05-03T13:11:55.357Z,4.97
2019-05-03T13:14:18.095Z,8.90
2019-05-03T13:16:46.290Z,5.83
2019-05-03T13:19:15.194Z,5.73
2019-05-03T13:21:44.990Z,6.23
2019-05-03T13:24:22.809Z,8.37
2019-05-03T13:26:45.560Z,8.27
2019-05-03T13:29:15.297Z,5.80
2019-05-03T13:31:57.496Z,10.40
2019-05-03T13:34:15.573Z,5.40
2019-05-03T13:36:45.491Z,8.73
2019-05-03T13:39:14.605Z,8.70
2019-05-03T13:41:45.358Z,5.73
2019-05-03T13:44:13.095Z,8.73
2019-05-03T13:46:41.293Z,7.93
2019-05-03T13:49:09.506Z,6.23
2019-05-03T13:51:37.720Z,6.60
2019-05-03T13:54:05.883Z,8.17
2019-05-03T13:56:35.344Z,7.00
2019-05-03T13:59:04.652Z,7.13
2019-05-03T14:01:33.739Z,11.87
2019-05-03T14:04:01.914Z,5.50
2019-05-03T14:06:33.557Z,8.53
2019-05-03T14:09:01.738Z,9.83
2019-05-03T14:11:29.946Z,4.80
2019-05-03T14:13:58.133Z,7.27
2019-05-03T14:16:26.337Z,7.60
2019-05-03T14:18:56.153Z,6.23
2019-05-03T14:21:29.226Z,7.53
2019-05-03T14:24:10.245Z,6.50
2019-05-03T14:26:39.459Z,6.90
2019-05-03T14:29:07.995Z,8.13
2019-05-03T14:31:36.562Z,10.57
2019-05-03T14:34:05.983Z,5.37
2019-05-03T14:36:35.883Z,5.77
2019-05-03T14:39:09.482Z,6.63
2019-05-03T14:41:36.683Z,6.33
2019-05-03T14:44:05.092Z,8.00
2019-05-03T14:46:35.964Z,5.67
2019-05-03T14:49:05.343Z,6.53
2019-05-03T14:51:34.972Z,8.67
2019-05-03T14:54:05.364Z,5.93
2019-05-03T14:56:45.566Z,6.60
2019-05-03T14:59:30.495Z,8.83
2019-05-03T15:02:00.338Z,10.43
2019-05-03T15:04:28.803Z,5.97
2019-05-03T15:06:57.918Z,6.10
2019-05-03T15:09:26.677Z,10.30
2019-05-03T15:11:54.857Z,10.73
2019-05-03T15:14:25.011Z,8.63
2019-05-03T15:16:53.238Z,7.93
2019-05-03T15:19:21.422Z,7.70
2019-05-03T15:21:49.598Z,5.53
2019-05-03T15:24:18.766Z,6.17
2019-05-03T15:26:47.277Z,7.40
2019-05-03T15:29:15.658Z,10.27
2019-05-03T15:31:44.782Z,8.40
2019-05-03T15:34:15.088Z,9.67
2019-05-03T15:36:45.048Z,4.77
2019-05-03T15:39:15.264Z,7.43
2019-05-03T15:41:44.952Z,6.97
2019-05-03T15:44:20.397Z,10.07
2019-05-03T15:46:50.226Z,5.80
2019-05-03T15:49:18.742Z,8.33
2019-05-03T15:51:46.948Z,10.77
2019-05-03T15:54:15.377Z,11.27
2019-05-03T15:56:44.898Z,8.07
2019-05-03T15:59:14.866Z,7.97
2019-05-03T16:01:43.275Z,10.70
2019-05-03T16:04:11.457Z,8.83
2019-05-03T16:06:39.955Z,11.37
2019-05-03T16:09:08.167Z,9.53
2019-05-03T16:11:36.401Z,8.60
2019-05-03T16:14:04.882Z,13.10
2019-05-03T16:16:35.245Z,8.67
2019-05-03T16:19:05.283Z,12.23
2019-05-03T16:21:34.145Z,10.43
2019-05-03T16:24:04.979Z,8.57
2019-05-03T16:26:33.335Z,12.53
2019-05-03T16:29:12.542Z,8.73
2019-05-03T16:31:40.750Z,9.43
2019-05-03T16:34:09.211Z,10.70
2019-05-03T16:36:37.428Z,13.90
2019-05-03T16:39:06.862Z,12.30
2019-05-03T16:41:35.371Z,10.13
2019-05-03T16:44:03.742Z,8.83
2019-05-03T16:46:31.936Z,10.00
2019-05-03T16:49:00.390Z,11.67
2019-05-03T16:51:28.566Z,11.27
2019-05-03T16:53:56.783Z,12.23
2019-05-03T16:56:24.974Z,11.03
2019-05-03T16:58:54.983Z,12.63
2019-05-03T17:01:24.441Z,15.03
2019-05-03T17:03:54.984Z,10.50
2019-05-03T17:06:40.042Z,10.47
2019-05-03T17:09:09.891Z,11.37
2019-05-03T17:11:38.094Z,11.07
2019-05-03T17:14:06.292Z,9.43
2019-05-03T17:16:34.578Z,14.10
2019-05-03T17:19:02.754Z,10.07
2019-05-03T17:21:30.962Z,18.33
2019-05-03T17:23:59.382Z,13.07
2019-05-03T17:26:27.871Z,9.23
2019-05-03T17:28:56.058Z,12.73
2019-05-03T17:31:24.412Z,11.90
2019-05-03T17:33:54.474Z,15.60
2019-05-03T17:36:22.744Z,10.93
2019-05-03T17:38:52.562Z,12.87
2019-05-03T17:41:25.554Z,14.27
2019-05-03T17:43:55.584Z,12.40
2019-05-03T17:46:25.464Z,12.90
2019-05-03T17:48:54.678Z,11.43
2019-05-03T17:51:39.790Z,9.13
2019-05-03T17:54:18.733Z,11.20
2019-05-03T17:56:55.164Z,13.97
2019-05-03T17:59:25.166Z,12.40
2019-05-03T18:02:11.408Z,15.17
2019-05-03T18:04:41.256Z,13.27
2019-05-03T18:07:26.359Z,12.13
2019-05-03T18:09:56.506Z,11.00
2019-05-03T18:12:24.692Z,10.07
2019-05-03T18:14:52.903Z,12.77
2019-05-03T18:17:21.342Z,12.47
2019-05-03T18:19:49.526Z,9.07
2019-05-03T18:22:17.710Z,14.97
2019-05-03T18:24:45.917Z,12.43
2019-05-03T18:27:15.012Z,11.27
2019-05-03T18:29:44.919Z,11.60
2019-05-03T18:32:14.724Z,14.43
2019-05-03T18:34:45.228Z,10.63
2019-05-03T18:37:15.206Z,13.23
2019-05-03T18:39:45.261Z,12.43
2019-05-03T18:42:15.264Z,14.47
2019-05-03T18:44:50.783Z,15.20
2019-05-03T18:47:20.602Z,13.60
2019-05-03T18:49:48.810Z,14.87
2019-05-03T18:52:16.990Z,13.17
2019-05-03T18:54:45.211Z,12.97
2019-05-03T18:57:15.490Z,19.53
2019-05-03T18:59:44.971Z,16.37
2019-05-03T19:02:14.891Z,19.37
2019-05-03T19:04:45.299Z,18.90
2019-05-03T19:07:27.489Z,15.90
2019-05-03T19:09:57.332Z,15.83
2019-05-03T19:12:36.338Z,20.40
2019-05-03T19:15:06.830Z,15.90
2019-05-03T19:17:45.619Z,16.10
2019-05-03T19:20:16.314Z,13.97
2019-05-03T19:22:44.542Z,14.90
2019-05-03T19:25:14.836Z,16.70
2019-05-03T19:27:45.074Z,14.83
2019-05-03T19:30:14.884Z,17.37
2019-05-03T19:32:44.960Z,14.57
2019-05-03T19:35:13.157Z,12.80
2019-05-03T19:37:41.417Z,17.80
2019-05-03T19:40:10.202Z,17.33
2019-05-03T19:42:38.679Z,17.53
2019-05-03T19:45:07.568Z,14.30
2019-05-03T19:47:35.778Z,17.17
2019-05-03T19:50:06.284Z,16.90
2019-05-03T19:52:54.568Z,16.33
2019-05-03T19:55:23.095Z,13.80
2019-05-03T19:57:51.576Z,13.03
2019-05-03T20:00:19.995Z,16.07
2019-05-03T20:02:54.344Z,14.97
2019-05-03T20:05:25.220Z,16.90
2019-05-03T20:08:07.361Z,15.67
2019-05-03T20:10:35.544Z,15.07
2019-05-03T20:13:04.677Z,13.73
2019-05-03T20:15:33.050Z,18.23
2019-05-03T20:18:01.570Z,21.33
2019-05-03T20:20:30.014Z,20.27
2019-05-03T20:22:59.077Z,15.63
2019-05-03T20:25:27.695Z,15.43
2019-05-03T20:27:56.011Z,19.53
2019-05-03T20:30:25.464Z,18.27
2019-05-03T20:32:55.574Z,16.63
2019-05-03T20:35:25.158Z,17.83
2019-05-03T20:37:55.287Z,20.63
2019-05-03T20:40:25.421Z,15.23
2019-05-03T20:42:55.269Z,16.90
2019-05-03T20:45:25.090Z,18.77
2019-05-03T20:47:54.913Z,14.60
2019-05-03T20:50:24.773Z,18.83
2019-05-03T20:52:54.913Z,18.97
2019-05-03T20:55:23.193Z,17.57
2019-05-03T20:57:51.653Z,17.53
2019-05-03T21:00:22.184Z,20.70
2019-05-03T21:02:54.000Z,18.90
2019-05-03T21:05:29.646Z,16.50
2019-05-03T21:07:50.606Z,20.77
2019-05-03T21:10:18.978Z,20.23
2019-05-03T21:12:47.446Z,20.93
2019-05-03T21:15:26.453Z,20.60
2019-05-03T21:18:04.752Z,20.93
2019-05-03T21:20:36.871Z,14.77
2019-05-03T21:23:07.592Z,17.33
2019-05-03T21:26:02.629Z,18.73
2019-05-03T21:28:07.346Z,17.63
2019-05-03T21:30:35.543Z,18.67
2019-05-03T21:33:05.457Z,15.30
2019-05-03T21:35:41.456Z,20.57
2019-05-03T21:38:04.008Z,17.53
2019-05-03T21:40:32.482Z,21.37
2019-05-03T21:43:00.963Z,18.83
2019-05-03T21:45:31.075Z,20.33
2019-05-03T21:48:05.051Z,17.17
2019-05-03T21:50:35.219Z,16.83
2019-05-03T21:53:05.610Z,18.30
2019-05-03T21:55:35.316Z,18.93
2019-05-03T21:58:04.719Z,21.07
2019-05-03T22:00:54.560Z,21.43
2019-05-03T22:03:25.104Z,23.43
2019-05-03T22:05:55.954Z,18.50
2019-05-03T22:08:24.713Z,19.83
2019-05-03T22:10:55.275Z,15.17
2019-05-03T22:13:24.570Z,18.70
2019-05-03T22:16:06.798Z,18.10
2019-05-03T22:18:37.121Z,16.23
2019-05-03T22:21:09.645Z,16.60
2019-05-03T22:23:55.391Z,22.77
2019-05-03T22:26:41.885Z,17.53
2019-05-03T22:29:10.242Z,18.13
2019-05-03T22:31:38.454Z,20.07
2019-05-03T22:34:06.665Z,18.50
2019-05-03T22:36:35.098Z,15.93
2019-05-03T22:39:05.042Z,22.57
2019-05-03T22:41:34.776Z,20.63
2019-05-03T22:44:03.123Z,21.17
2019-05-03T22:46:31.583Z,22.03
2019-05-03T22:48:59.790Z,28.57
2019-05-03T22:51:27.980Z,22.40
2019-05-03T22:53:56.497Z,23.40
2019-05-03T22:56:24.989Z,21.60
2019-05-03T22:58:54.805Z,22.53
2019-05-03T23:01:23.178Z,24.80
2019-05-03T23:03:51.408Z,21.47
2019-05-03T23:06:22.647Z,20.87
2019-05-03T23:08:49.498Z,19.47
2019-05-03T23:11:17.710Z,20.77
2019-05-03T23:13:47.827Z,26.80
2019-05-03T23:16:16.037Z,22.90
2019-05-03T23:18:44.402Z,21.73
2019-05-03T23:21:15.197Z,22.03
2019-05-03T23:23:50.953Z,22.20
2019-05-03T23:26:19.164Z,26.23
2019-05-03T23:28:47.818Z,24.37
2019-05-03T23:31:16.294Z,28.73
2019-05-03T23:33:45.271Z,23.20
2019-05-03T23:36:15.444Z,26.07
2019-05-03T23:38:45.239Z,27.60
2019-05-03T23:41:15.303Z,30.63
2019-05-03T23:43:45.143Z,30.23
2019-05-03T23:46:14.895Z,29.17
2019-05-03T23:48:44.671Z,28.77
2019-05-03T23:51:14.931Z,30.57
2019-05-03T23:53:44.619Z,30.83
2019-05-03T23:56:17.062Z,34.60
2019-05-03T23:58:45.269Z,36.70
